sensor_id;sensor_type;location;lat;lon;timestamp;temperature;humidity
19999;DHT22;10160;50.926;4.374;2023-05-21T00:00:43;16.00;99.90
19999;DHT22;10160;50.926;4.374;2023-05-21T00:03:09;15.80;99.90
19999;DHT22;10160;50.926;4.374;2023-05-21T00:05:42;15.80;99.90
19999;DHT22;10160;50.926;4.374;2023-05-21T00:08:09;15.80;99.90
19999;DHT22;10160;50.926;4.374;2023-05-21T00:10:35;15.80;99.90
19999;DHT22;10160;50.926;4.374;2023-05-21T00:13:01;15.80;99.90
19999;DHT22;10160;50.926;4.374;2023-05-21T00:15:27;15.60;99.90
19999;DHT22;10160;50.926;4.374;2023-05-21T00:17:53;15.50;99.90
19999;DHT22;10160;50.926;4.374;2023-05-21T00:20:18;15.60;99.90
19999;DHT22;10160;50.926;4.374;2023-05-21T00:22:44;15.50;99.90
19999;DHT22;10160;50.926;4.374;2023-05-21T00:25:10;15.50;99.90
19999;DHT22;10160;50.926;4.374;2023-05-21T00:27:36;15.60;99.90
19999;DHT22;10160;50.926;4.374;2023-05-21T00:30:03;15.50;99.90
19999;DHT22;10160;50.926;4.374;2023-05-21T00:32:29;15.50;99.90
19999;DHT22;10160;50.926;4.374;2023-05-21T00:34:54;15.40;99.90
19999;DHT22;10160;50.926;4.374;2023-05-21T00:37:20;15.50;99.90
19999;DHT22;10160;50.926;4.374;2023-05-21T00:39:46;15.30;99.90
19999;DHT22;10160;50.926;4.374;2023-05-21T00:42:12;15.20;99.90
19999;DHT22;10160;50.926;4.374;2023-05-21T00:44:43;15.10;99.90
19999;DHT22;10160;50.926;4.374;2023-05-21T00:47:09;15.10;99.90
19999;DHT22;10160;50.926;4.374;2023-05-21T00:49:36;15.20;99.90
19999;DHT22;10160;50.926;4.374;2023-05-21T00:52:02;15.30;99.90
19999;DHT22;10160;50.926;4.374;2023-05-21T00:54:29;15.20;99.90
19999;DHT22;10160;50.926;4.374;2023-05-21T00:56:55;15.10;99.90
19999;DHT22;10160;50.926;4.374;2023-05-21T00:59:21;15.20;99.90
19999;DHT22;10160;50.926;4.374;2023-05-21T01:01:48;15.10;99.90
19999;DHT22;10160;50.926;4.374;2023-05-21T01:04:21;15.10;99.90
19999;DHT22;10160;50.926;4.374;2023-05-21T01:06:47;15.10;99.90
19999;DHT22;10160;50.926;4.374;2023-05-21T01:09:13;15.10;99.90
19999;DHT22;10160;50.926;4.374;2023-05-21T01:11:48;15.00;99.90
19999;DHT22;10160;50.926;4.374;2023-05-21T01:14:16;14.90;99.90
19999;DHT22;10160;50.926;4.374;2023-05-21T01:16:43;14.90;99.90
19999;DHT22;10160;50.926;4.374;2023-05-21T01:19:16;15.00;99.90
19999;DHT22;10160;50.926;4.374;2023-05-21T01:21:56;15.00;99.90
19999;DHT22;10160;50.926;4.374;2023-05-21T01:24:24;15.00;99.90
19999;DHT22;10160;50.926;4.374;2023-05-21T01:26:50;15.00;99.90
19999;DHT22;10160;50.926;4.374;2023-05-21T01:29:17;15.00;99.90
19999;DHT22;10160;50.926;4.374;2023-05-21T01:34:35;14.80;99.90
19999;DHT22;10160;50.926;4.374;2023-05-21T01:37:22;14.70;99.90
19999;DHT22;10160;50.926;4.374;2023-05-21T01:39:55;14.70;99.90
19999;DHT22;10160;50.926;4.374;2023-05-21T01:42:22;14.50;99.90
19999;DHT22;10160;50.926;4.374;2023-05-21T01:44:50;14.60;99.90
19999;DHT22;10160;50.926;4.374;2023-05-21T01:47:20;14.60;99.90
19999;DHT22;10160;50.926;4.374;2023-05-21T01:49:46;14.60;99.90
19999;DHT22;10160;50.926;4.374;2023-05-21T01:52:12;14.60;99.90
19999;DHT22;10160;50.926;4.374;2023-05-21T01:54:38;14.70;99.90
19999;DHT22;10160;50.926;4.374;2023-05-21T01:57:03;14.60;99.90
19999;DHT22;10160;50.926;4.374;2023-05-21T01:59:29;14.60;99.90
19999;DHT22;10160;50.926;4.374;2023-05-21T02:01:55;14.60;99.90
19999;DHT22;10160;50.926;4.374;2023-05-21T02:04:21;14.70;99.90
19999;DHT22;10160;50.926;4.374;2023-05-21T02:06:46;14.60;99.90
19999;DHT22;10160;50.926;4.374;2023-05-21T02:09:12;14.60;99.90
19999;DHT22;10160;50.926;4.374;2023-05-21T02:11:37;14.70;99.90
19999;DHT22;10160;50.926;4.374;2023-05-21T02:14:03;14.60;99.90
19999;DHT22;10160;50.926;4.374;2023-05-21T02:16:29;14.50;99.90
19999;DHT22;10160;50.926;4.374;2023-05-21T02:18:54;14.40;99.90
19999;DHT22;10160;50.926;4.374;2023-05-21T02:21:22;14.60;99.90
19999;DHT22;10160;50.926;4.374;2023-05-21T02:23:48;14.60;99.90
19999;DHT22;10160;50.926;4.374;2023-05-21T02:26:13;14.50;99.90
19999;DHT22;10160;50.926;4.374;2023-05-21T02:28:39;14.50;99.90
19999;DHT22;10160;50.926;4.374;2023-05-21T02:31:05;14.50;99.90
19999;DHT22;10160;50.926;4.374;2023-05-21T02:33:30;14.40;99.90
19999;DHT22;10160;50.926;4.374;2023-05-21T02:35:56;14.30;99.90
19999;DHT22;10160;50.926;4.374;2023-05-21T02:38:22;14.30;99.90
19999;DHT22;10160;50.926;4.374;2023-05-21T02:40:50;14.30;99.90
19999;DHT22;10160;50.926;4.374;2023-05-21T02:43:16;14.20;99.90
19999;DHT22;10160;50.926;4.374;2023-05-21T02:45:42;14.20;99.90
19999;DHT22;10160;50.926;4.374;2023-05-21T02:48:08;14.30;99.90
19999;DHT22;10160;50.926;4.374;2023-05-21T02:50:33;14.40;99.90
19999;DHT22;10160;50.926;4.374;2023-05-21T02:52:59;14.20;99.90
19999;DHT22;10160;50.926;4.374;2023-05-21T02:55:25;14.30;99.90
19999;DHT22;10160;50.926;4.374;2023-05-21T02:57:51;14.30;99.90
19999;DHT22;10160;50.926;4.374;2023-05-21T03:00:16;14.40;99.90
19999;DHT22;10160;50.926;4.374;2023-05-21T03:02:42;14.30;99.90
19999;DHT22;10160;50.926;4.374;2023-05-21T03:05:08;14.20;99.90
19999;DHT22;10160;50.926;4.374;2023-05-21T03:07:34;14.40;99.90
19999;DHT22;10160;50.926;4.374;2023-05-21T03:09:59;14.10;99.90
19999;DHT22;10160;50.926;4.374;2023-05-21T03:12:25;14.10;99.90
19999;DHT22;10160;50.926;4.374;2023-05-21T03:14:51;14.10;99.90
19999;DHT22;10160;50.926;4.374;2023-05-21T03:17:17;14.10;99.90
19999;DHT22;10160;50.926;4.374;2023-05-21T03:19:43;14.20;99.90
19999;DHT22;10160;50.926;4.374;2023-05-21T03:22:09;14.20;99.90
19999;DHT22;10160;50.926;4.374;2023-05-21T03:24:37;14.10;99.90
19999;DHT22;10160;50.926;4.374;2023-05-21T03:27:03;14.10;99.90
19999;DHT22;10160;50.926;4.374;2023-05-21T03:29:31;13.90;99.90
19999;DHT22;10160;50.926;4.374;2023-05-21T03:31:57;14.00;99.90
19999;DHT22;10160;50.926;4.374;2023-05-21T03:34:22;14.10;99.90
19999;DHT22;10160;50.926;4.374;2023-05-21T03:36:49;14.10;99.90
19999;DHT22;10160;50.926;4.374;2023-05-21T03:39:15;14.10;99.90
19999;DHT22;10160;50.926;4.374;2023-05-21T03:41:40;14.10;99.90
19999;DHT22;10160;50.926;4.374;2023-05-21T03:44:06;14.20;99.90
19999;DHT22;10160;50.926;4.374;2023-05-21T03:46:32;14.10;99.90
19999;DHT22;10160;50.926;4.374;2023-05-21T03:48:58;14.10;99.90
19999;DHT22;10160;50.926;4.374;2023-05-21T03:51:24;14.20;99.90
19999;DHT22;10160;50.926;4.374;2023-05-21T03:53:50;14.10;99.90
19999;DHT22;10160;50.926;4.374;2023-05-21T03:56:16;14.10;99.90
19999;DHT22;10160;50.926;4.374;2023-05-21T03:58:42;14.10;99.90
19999;DHT22;10160;50.926;4.374;2023-05-21T04:01:08;14.00;99.90
19999;DHT22;10160;50.926;4.374;2023-05-21T04:03:34;13.60;99.90
19999;DHT22;10160;50.926;4.374;2023-05-21T04:06:03;13.40;99.90
19999;DHT22;10160;50.926;4.374;2023-05-21T04:08:29;13.70;99.90
19999;DHT22;10160;50.926;4.374;2023-05-21T04:10:55;13.70;99.90
19999;DHT22;10160;50.926;4.374;2023-05-21T04:13:20;13.80;99.90
19999;DHT22;10160;50.926;4.374;2023-05-21T04:15:46;13.80;99.90
19999;DHT22;10160;50.926;4.374;2023-05-21T04:18:13;13.80;99.90
19999;DHT22;10160;50.926;4.374;2023-05-21T04:20:41;13.70;99.90
19999;DHT22;10160;50.926;4.374;2023-05-21T04:23:07;13.80;99.90
19999;DHT22;10160;50.926;4.374;2023-05-21T04:25:33;13.90;99.90
19999;DHT22;10160;50.926;4.374;2023-05-21T04:27:58;14.10;99.90
19999;DHT22;10160;50.926;4.374;2023-05-21T04:30:24;14.00;99.90
19999;DHT22;10160;50.926;4.374;2023-05-21T04:32:50;14.20;99.90
19999;DHT22;10160;50.926;4.374;2023-05-21T04:35:17;14.20;99.90
19999;DHT22;10160;50.926;4.374;2023-05-21T04:37:42;14.40;99.90
19999;DHT22;10160;50.926;4.374;2023-05-21T04:40:13;14.40;99.90
19999;DHT22;10160;50.926;4.374;2023-05-21T04:42:46;14.30;99.90
19999;DHT22;10160;50.926;4.374;2023-05-21T04:45:12;14.40;99.90
19999;DHT22;10160;50.926;4.374;2023-05-21T04:47:38;14.30;99.90
19999;DHT22;10160;50.926;4.374;2023-05-21T04:50:04;14.40;99.90
19999;DHT22;10160;50.926;4.374;2023-05-21T04:52:30;14.50;99.90
19999;DHT22;10160;50.926;4.374;2023-05-21T04:54:56;14.60;99.90
19999;DHT22;10160;50.926;4.374;2023-05-21T04:57:22;14.70;99.90
19999;DHT22;10160;50.926;4.374;2023-05-21T04:59:52;14.80;99.90
19999;DHT22;10160;50.926;4.374;2023-05-21T05:02:18;14.80;99.90
19999;DHT22;10160;50.926;4.374;2023-05-21T05:04:45;14.80;99.90
19999;DHT22;10160;50.926;4.374;2023-05-21T05:07:10;14.60;99.90
19999;DHT22;10160;50.926;4.374;2023-05-21T05:09:36;14.40;99.90
19999;DHT22;10160;50.926;4.374;2023-05-21T05:12:02;14.70;99.90
19999;DHT22;10160;50.926;4.374;2023-05-21T05:14:28;14.80;99.90
19999;DHT22;10160;50.926;4.374;2023-05-21T05:16:54;15.00;99.90
19999;DHT22;10160;50.926;4.374;2023-05-21T05:19:24;15.00;99.90
19999;DHT22;10160;50.926;4.374;2023-05-21T05:21:49;15.00;99.90
19999;DHT22;10160;50.926;4.374;2023-05-21T05:24:15;15.10;99.90
19999;DHT22;10160;50.926;4.374;2023-05-21T05:26:41;15.00;99.90
19999;DHT22;10160;50.926;4.374;2023-05-21T05:29:07;15.10;99.90
19999;DHT22;10160;50.926;4.374;2023-05-21T05:31:32;15.10;99.90
19999;DHT22;10160;50.926;4.374;2023-05-21T05:33:58;15.10;99.90
19999;DHT22;10160;50.926;4.374;2023-05-21T05:36:24;15.20;99.90
19999;DHT22;10160;50.926;4.374;2023-05-21T05:38:51;15.40;99.90
19999;DHT22;10160;50.926;4.374;2023-05-21T05:41:16;15.50;99.90
19999;DHT22;10160;50.926;4.374;2023-05-21T05:43:42;15.60;99.90
19999;DHT22;10160;50.926;4.374;2023-05-21T05:46:08;15.70;99.90
19999;DHT22;10160;50.926;4.374;2023-05-21T05:48:34;15.90;99.90
19999;DHT22;10160;50.926;4.374;2023-05-21T05:51:00;16.00;99.90
19999;DHT22;10160;50.926;4.374;2023-05-21T05:53:25;16.00;99.90
19999;DHT22;10160;50.926;4.374;2023-05-21T05:55:51;16.10;99.90
19999;DHT22;10160;50.926;4.374;2023-05-21T05:58:17;16.10;99.90
19999;DHT22;10160;50.926;4.374;2023-05-21T06:00:42;16.00;99.90
19999;DHT22;10160;50.926;4.374;2023-05-21T06:03:08;16.20;99.90
19999;DHT22;10160;50.926;4.374;2023-05-21T06:05:34;16.20;99.90
19999;DHT22;10160;50.926;4.374;2023-05-21T06:08:00;16.30;99.90
19999;DHT22;10160;50.926;4.374;2023-05-21T06:10:25;16.40;99.90
19999;DHT22;10160;50.926;4.374;2023-05-21T06:12:51;16.50;99.90
19999;DHT22;10160;50.926;4.374;2023-05-21T06:15:17;16.60;99.90
19999;DHT22;10160;50.926;4.374;2023-05-21T06:17:44;16.30;99.90
19999;DHT22;10160;50.926;4.374;2023-05-21T06:20:10;16.40;99.90
19999;DHT22;10160;50.926;4.374;2023-05-21T06:22:36;16.50;99.90
19999;DHT22;10160;50.926;4.374;2023-05-21T06:25:02;16.60;99.90
19999;DHT22;10160;50.926;4.374;2023-05-21T06:27:28;16.70;99.90
19999;DHT22;10160;50.926;4.374;2023-05-21T06:29:54;16.80;99.90
19999;DHT22;10160;50.926;4.374;2023-05-21T06:32:21;16.70;99.90
19999;DHT22;10160;50.926;4.374;2023-05-21T06:34:47;16.90;99.90
19999;DHT22;10160;50.926;4.374;2023-05-21T06:37:13;17.10;99.90
19999;DHT22;10160;50.926;4.374;2023-05-21T06:39:38;17.10;99.90
19999;DHT22;10160;50.926;4.374;2023-05-21T06:42:04;17.20;99.90
19999;DHT22;10160;50.926;4.374;2023-05-21T06:44:30;17.20;99.90
19999;DHT22;10160;50.926;4.374;2023-05-21T06:46:56;17.20;99.90
19999;DHT22;10160;50.926;4.374;2023-05-21T06:49:21;17.30;99.90
19999;DHT22;10160;50.926;4.374;2023-05-21T06:51:47;17.50;99.90
19999;DHT22;10160;50.926;4.374;2023-05-21T06:54:13;17.50;99.90
19999;DHT22;10160;50.926;4.374;2023-05-21T06:56:39;17.60;99.90
19999;DHT22;10160;50.926;4.374;2023-05-21T06:59:04;17.80;99.90
19999;DHT22;10160;50.926;4.374;2023-05-21T07:01:30;17.90;99.90
19999;DHT22;10160;50.926;4.374;2023-05-21T07:03:56;17.70;99.90
19999;DHT22;10160;50.926;4.374;2023-05-21T07:06:22;17.90;99.90
19999;DHT22;10160;50.926;4.374;2023-05-21T07:08:48;18.00;99.90
19999;DHT22;10160;50.926;4.374;2023-05-21T07:11:14;18.10;99.90
19999;DHT22;10160;50.926;4.374;2023-05-21T07:13:40;18.10;99.90
19999;DHT22;10160;50.926;4.374;2023-05-21T07:16:06;18.10;99.90
19999;DHT22;10160;50.926;4.374;2023-05-21T07:18:32;18.10;99.90
19999;DHT22;10160;50.926;4.374;2023-05-21T07:20:57;18.10;99.90
19999;DHT22;10160;50.926;4.374;2023-05-21T07:23:23;18.00;99.90
19999;DHT22;10160;50.926;4.374;2023-05-21T07:25:49;18.00;99.90
19999;DHT22;10160;50.926;4.374;2023-05-21T07:28:15;18.10;99.90
19999;DHT22;10160;50.926;4.374;2023-05-21T07:30:40;18.10;99.90
19999;DHT22;10160;50.926;4.374;2023-05-21T07:33:06;18.30;99.90
19999;DHT22;10160;50.926;4.374;2023-05-21T07:35:32;18.30;99.90
19999;DHT22;10160;50.926;4.374;2023-05-21T07:37:58;18.50;99.90
19999;DHT22;10160;50.926;4.374;2023-05-21T07:40:23;18.70;99.90
19999;DHT22;10160;50.926;4.374;2023-05-21T07:42:49;18.60;99.90
19999;DHT22;10160;50.926;4.374;2023-05-21T07:45:15;18.70;99.90
19999;DHT22;10160;50.926;4.374;2023-05-21T07:47:41;18.70;99.90
19999;DHT22;10160;50.926;4.374;2023-05-21T07:50:07;18.90;99.90
19999;DHT22;10160;50.926;4.374;2023-05-21T07:52:32;19.10;99.90
19999;DHT22;10160;50.926;4.374;2023-05-21T07:55:00;19.20;99.90
19999;DHT22;10160;50.926;4.374;2023-05-21T07:57:26;19.20;99.90
19999;DHT22;10160;50.926;4.374;2023-05-21T07:59:52;19.10;99.90
19999;DHT22;10160;50.926;4.374;2023-05-21T08:02:17;19.20;99.90
19999;DHT22;10160;50.926;4.374;2023-05-21T08:04:43;19.30;99.90
19999;DHT22;10160;50.926;4.374;2023-05-21T08:07:08;19.10;99.90
19999;DHT22;10160;50.926;4.374;2023-05-21T08:09:35;18.80;99.90
19999;DHT22;10160;50.926;4.374;2023-05-21T08:12:01;19.00;99.90
19999;DHT22;10160;50.926;4.374;2023-05-21T08:14:26;19.10;99.90
19999;DHT22;10160;50.926;4.374;2023-05-21T08:16:52;19.20;99.90
19999;DHT22;10160;50.926;4.374;2023-05-21T08:19:17;19.30;99.90
19999;DHT22;10160;50.926;4.374;2023-05-21T08:21:43;19.30;99.90
19999;DHT22;10160;50.926;4.374;2023-05-21T08:24:09;19.30;99.90
19999;DHT22;10160;50.926;4.374;2023-05-21T08:26:35;19.30;99.90
19999;DHT22;10160;50.926;4.374;2023-05-21T08:29:01;19.30;99.90
19999;DHT22;10160;50.926;4.374;2023-05-21T08:31:30;19.50;99.90
19999;DHT22;10160;50.926;4.374;2023-05-21T08:33:55;19.80;99.90
19999;DHT22;10160;50.926;4.374;2023-05-21T08:36:21;19.90;99.90
19999;DHT22;10160;50.926;4.374;2023-05-21T08:38:47;19.90;99.90
19999;DHT22;10160;50.926;4.374;2023-05-21T08:41:13;20.00;99.90
19999;DHT22;10160;50.926;4.374;2023-05-21T08:43:41;20.00;99.90
19999;DHT22;10160;50.926;4.374;2023-05-21T08:46:08;20.00;99.90
19999;DHT22;10160;50.926;4.374;2023-05-21T08:48:36;20.20;99.90
19999;DHT22;10160;50.926;4.374;2023-05-21T08:51:03;20.30;99.90
19999;DHT22;10160;50.926;4.374;2023-05-21T08:53:29;20.40;99.90
19999;DHT22;10160;50.926;4.374;2023-05-21T08:55:56;20.40;99.90
19999;DHT22;10160;50.926;4.374;2023-05-21T08:58:22;20.20;99.90
19999;DHT22;10160;50.926;4.374;2023-05-21T09:00:48;20.10;99.90
19999;DHT22;10160;50.926;4.374;2023-05-21T09:03:14;20.30;99.90
19999;DHT22;10160;50.926;4.374;2023-05-21T09:05:41;20.10;99.90
19999;DHT22;10160;50.926;4.374;2023-05-21T09:08:15;19.90;99.90
19999;DHT22;10160;50.926;4.374;2023-05-21T09:10:47;20.20;99.90
19999;DHT22;10160;50.926;4.374;2023-05-21T09:13:15;20.40;99.90
19999;DHT22;10160;50.926;4.374;2023-05-21T09:15:45;20.60;99.90
19999;DHT22;10160;50.926;4.374;2023-05-21T09:18:14;20.60;99.90
19999;DHT22;10160;50.926;4.374;2023-05-21T09:20:40;20.70;99.90
19999;DHT22;10160;50.926;4.374;2023-05-21T09:23:07;20.50;99.90
19999;DHT22;10160;50.926;4.374;2023-05-21T09:25:44;20.80;99.90
19999;DHT22;10160;50.926;4.374;2023-05-21T09:28:12;21.00;99.90
19999;DHT22;10160;50.926;4.374;2023-05-21T09:30:44;21.10;99.90
19999;DHT22;10160;50.926;4.374;2023-05-21T09:33:10;21.10;99.90
19999;DHT22;10160;50.926;4.374;2023-05-21T09:35:36;21.00;99.90
19999;DHT22;10160;50.926;4.374;2023-05-21T09:38:07;21.20;99.90
19999;DHT22;10160;50.926;4.374;2023-05-21T09:40:34;21.40;99.90
19999;DHT22;10160;50.926;4.374;2023-05-21T09:42:59;21.70;99.90
19999;DHT22;10160;50.926;4.374;2023-05-21T09:45:26;21.90;99.90
19999;DHT22;10160;50.926;4.374;2023-05-21T09:47:53;21.80;99.90
19999;DHT22;10160;50.926;4.374;2023-05-21T09:50:24;22.00;99.90
19999;DHT22;10160;50.926;4.374;2023-05-21T09:52:51;22.20;99.90
19999;DHT22;10160;50.926;4.374;2023-05-21T09:55:25;22.30;99.90
19999;DHT22;10160;50.926;4.374;2023-05-21T09:57:51;22.70;99.90
19999;DHT22;10160;50.926;4.374;2023-05-21T10:00:27;22.50;99.90
19999;DHT22;10160;50.926;4.374;2023-05-21T10:02:54;22.70;99.90
19999;DHT22;10160;50.926;4.374;2023-05-21T10:05:28;22.60;99.90
19999;DHT22;10160;50.926;4.374;2023-05-21T10:08:02;22.40;99.90
19999;DHT22;10160;50.926;4.374;2023-05-21T10:10:30;22.80;99.90
19999;DHT22;10160;50.926;4.374;2023-05-21T10:13:08;23.10;99.90
19999;DHT22;10160;50.926;4.374;2023-05-21T10:15:37;23.30;99.90
19999;DHT22;10160;50.926;4.374;2023-05-21T10:18:06;22.70;99.90
19999;DHT22;10160;50.926;4.374;2023-05-21T10:20:33;22.80;99.90
19999;DHT22;10160;50.926;4.374;2023-05-21T10:22:59;23.30;99.90
19999;DHT22;10160;50.926;4.374;2023-05-21T10:25:26;23.50;99.90
19999;DHT22;10160;50.926;4.374;2023-05-21T10:27:54;23.70;99.90
19999;DHT22;10160;50.926;4.374;2023-05-21T10:30:20;23.60;99.90
19999;DHT22;10160;50.926;4.374;2023-05-21T10:32:48;23.70;99.90
19999;DHT22;10160;50.926;4.374;2023-05-21T10:35:17;23.70;99.90
19999;DHT22;10160;50.926;4.374;2023-05-21T10:37:44;23.70;99.90
19999;DHT22;10160;50.926;4.374;2023-05-21T10:40:11;23.20;99.90
19999;DHT22;10160;50.926;4.374;2023-05-21T10:48:22;23.80;99.90
19999;DHT22;10160;50.926;4.374;2023-05-21T11:01:56;23.90;99.90
19999;DHT22;10160;50.926;4.374;2023-05-21T11:04:25;24.20;99.90
19999;DHT22;10160;50.926;4.374;2023-05-21T11:06:51;24.00;99.90
19999;DHT22;10160;50.926;4.374;2023-05-21T11:09:17;23.00;99.90
19999;DHT22;10160;50.926;4.374;2023-05-21T11:11:50;23.00;99.90
19999;DHT22;10160;50.926;4.374;2023-05-21T11:22:19;24.60;99.90
19999;DHT22;10160;50.926;4.374;2023-05-21T11:24:46;24.70;99.90
19999;DHT22;10160;50.926;4.374;2023-05-21T11:27:12;24.50;99.90
19999;DHT22;10160;50.926;4.374;2023-05-21T11:29:42;24.40;99.90
19999;DHT22;10160;50.926;4.374;2023-05-21T11:32:10;24.60;99.90
19999;DHT22;10160;50.926;4.374;2023-05-21T11:34:41;24.50;99.90
19999;DHT22;10160;50.926;4.374;2023-05-21T11:39:48;24.20;99.90
19999;DHT22;10160;50.926;4.374;2023-05-21T11:42:34;24.20;99.90
19999;DHT22;10160;50.926;4.374;2023-05-21T11:45:02;24.30;99.90
19999;DHT22;10160;50.926;4.374;2023-05-21T11:47:29;24.20;99.90
19999;DHT22;10160;50.926;4.374;2023-05-21T11:49:58;24.30;99.90
19999;DHT22;10160;50.926;4.374;2023-05-21T11:52:26;24.20;99.90
19999;DHT22;10160;50.926;4.374;2023-05-21T11:54:53;23.70;99.90
19999;DHT22;10160;50.926;4.374;2023-05-21T11:57:22;24.00;99.90
19999;DHT22;10160;50.926;4.374;2023-05-21T11:59:49;24.30;99.90
19999;DHT22;10160;50.926;4.374;2023-05-21T12:02:19;24.30;99.90
19999;DHT22;10160;50.926;4.374;2023-05-21T12:04:46;24.00;99.90
19999;DHT22;10160;50.926;4.374;2023-05-21T12:07:13;24.20;99.90
19999;DHT22;10160;50.926;4.374;2023-05-21T12:09:49;24.50;99.90
19999;DHT22;10160;50.926;4.374;2023-05-21T12:12:19;24.50;99.90
19999;DHT22;10160;50.926;4.374;2023-05-21T12:14:49;25.20;99.90
19999;DHT22;10160;50.926;4.374;2023-05-21T12:17:17;25.70;99.90
19999;DHT22;10160;50.926;4.374;2023-05-21T12:19:44;25.70;99.90
19999;DHT22;10160;50.926;4.374;2023-05-21T12:22:10;25.40;99.90
19999;DHT22;10160;50.926;4.374;2023-05-21T12:24:37;25.40;99.90
19999;DHT22;10160;50.926;4.374;2023-05-21T12:27:05;25.30;99.90
19999;DHT22;10160;50.926;4.374;2023-05-21T12:29:46;25.50;99.90
19999;DHT22;10160;50.926;4.374;2023-05-21T12:32:13;25.90;99.90
19999;DHT22;10160;50.926;4.374;2023-05-21T12:34:47;26.30;99.90
19999;DHT22;10160;50.926;4.374;2023-05-21T12:37:28;26.70;99.90
19999;DHT22;10160;50.926;4.374;2023-05-21T12:40:02;26.80;99.90
19999;DHT22;10160;50.926;4.374;2023-05-21T12:42:32;26.60;99.90
19999;DHT22;10160;50.926;4.374;2023-05-21T12:45:10;26.40;99.90
19999;DHT22;10160;50.926;4.374;2023-05-21T12:47:36;26.20;99.90
19999;DHT22;10160;50.926;4.374;2023-05-21T12:50:03;26.10;99.90
19999;DHT22;10160;50.926;4.374;2023-05-21T12:52:32;26.40;99.90
19999;DHT22;10160;50.926;4.374;2023-05-21T12:54:58;26.40;99.90
19999;DHT22;10160;50.926;4.374;2023-05-21T12:57:26;26.30;99.90
19999;DHT22;10160;50.926;4.374;2023-05-21T12:59:58;26.00;99.90
19999;DHT22;10160;50.926;4.374;2023-05-21T13:02:29;25.90;99.90
19999;DHT22;10160;50.926;4.374;2023-05-21T13:05:06;25.90;99.90
19999;DHT22;10160;50.926;4.374;2023-05-21T13:07:34;26.00;99.90
19999;DHT22;10160;50.926;4.374;2023-05-21T13:10:00;26.10;99.90
19999;DHT22;10160;50.926;4.374;2023-05-21T13:12:28;25.70;99.90
19999;DHT22;10160;50.926;4.374;2023-05-21T13:14:55;25.90;99.90
19999;DHT22;10160;50.926;4.374;2023-05-21T13:17:22;25.80;99.90
19999;DHT22;10160;50.926;4.374;2023-05-21T13:22:46;25.70;99.90
19999;DHT22;10160;50.926;4.374;2023-05-21T13:25:23;25.30;99.90
19999;DHT22;10160;50.926;4.374;2023-05-21T13:27:50;25.30;99.90
19999;DHT22;10160;50.926;4.374;2023-05-21T13:30:17;25.40;99.90
19999;DHT22;10160;50.926;4.374;2023-05-21T13:32:43;24.90;99.90
19999;DHT22;10160;50.926;4.374;2023-05-21T13:35:09;25.10;99.90
19999;DHT22;10160;50.926;4.374;2023-05-21T13:37:37;25.50;99.90
19999;DHT22;10160;50.926;4.374;2023-05-21T13:40:08;25.90;99.90
19999;DHT22;10160;50.926;4.374;2023-05-21T13:42:39;26.60;99.90
19999;DHT22;10160;50.926;4.374;2023-05-21T13:45:10;26.70;99.90
19999;DHT22;10160;50.926;4.374;2023-05-21T13:47:37;26.80;99.90
19999;DHT22;10160;50.926;4.374;2023-05-21T13:50:03;26.30;99.90
19999;DHT22;10160;50.926;4.374;2023-05-21T13:52:29;26.20;99.90
19999;DHT22;10160;50.926;4.374;2023-05-21T13:54:55;26.20;99.90
19999;DHT22;10160;50.926;4.374;2023-05-21T13:57:20;26.80;99.90
19999;DHT22;10160;50.926;4.374;2023-05-21T13:59:46;26.80;99.90
19999;DHT22;10160;50.926;4.374;2023-05-21T14:02:12;27.00;99.90
19999;DHT22;10160;50.926;4.374;2023-05-21T14:04:38;27.20;99.90
19999;DHT22;10160;50.926;4.374;2023-05-21T14:07:04;27.30;99.90
19999;DHT22;10160;50.926;4.374;2023-05-21T14:09:30;26.60;99.90
19999;DHT22;10160;50.926;4.374;2023-05-21T14:11:56;26.70;99.90
19999;DHT22;10160;50.926;4.374;2023-05-21T14:14:23;26.60;99.90
19999;DHT22;10160;50.926;4.374;2023-05-21T14:16:49;26.70;99.90
19999;DHT22;10160;50.926;4.374;2023-05-21T14:19:16;26.80;99.90
19999;DHT22;10160;50.926;4.374;2023-05-21T14:21:42;26.80;99.90
19999;DHT22;10160;50.926;4.374;2023-05-21T14:24:08;26.00;99.90
19999;DHT22;10160;50.926;4.374;2023-05-21T14:26:35;26.10;99.90
19999;DHT22;10160;50.926;4.374;2023-05-21T14:29:01;25.90;99.90
19999;DHT22;10160;50.926;4.374;2023-05-21T14:31:27;25.90;99.90
19999;DHT22;10160;50.926;4.374;2023-05-21T14:33:53;25.90;99.90
19999;DHT22;10160;50.926;4.374;2023-05-21T14:36:18;26.10;99.90
19999;DHT22;10160;50.926;4.374;2023-05-21T14:38:45;26.20;99.90
19999;DHT22;10160;50.926;4.374;2023-05-21T14:41:10;26.60;99.90
19999;DHT22;10160;50.926;4.374;2023-05-21T14:43:36;26.70;99.90
19999;DHT22;10160;50.926;4.374;2023-05-21T14:46:02;26.90;99.90
19999;DHT22;10160;50.926;4.374;2023-05-21T14:48:28;26.90;99.90
19999;DHT22;10160;50.926;4.374;2023-05-21T14:50:53;27.10;99.90
19999;DHT22;10160;50.926;4.374;2023-05-21T14:53:19;27.20;99.90
19999;DHT22;10160;50.926;4.374;2023-05-21T14:55:46;26.90;99.90
19999;DHT22;10160;50.926;4.374;2023-05-21T14:58:12;26.70;99.90
19999;DHT22;10160;50.926;4.374;2023-05-21T15:00:38;26.40;99.90
19999;DHT22;10160;50.926;4.374;2023-05-21T15:03:05;26.70;99.90
19999;DHT22;10160;50.926;4.374;2023-05-21T15:05:31;27.00;99.90
19999;DHT22;10160;50.926;4.374;2023-05-21T15:07:58;27.10;99.90
19999;DHT22;10160;50.926;4.374;2023-05-21T15:10:24;26.80;99.90
19999;DHT22;10160;50.926;4.374;2023-05-21T15:12:50;26.50;99.90
19999;DHT22;10160;50.926;4.374;2023-05-21T15:15:16;26.50;99.90
19999;DHT22;10160;50.926;4.374;2023-05-21T15:17:47;26.80;99.90
19999;DHT22;10160;50.926;4.374;2023-05-21T15:20:13;26.60;99.90
19999;DHT22;10160;50.926;4.374;2023-05-21T15:22:39;26.60;99.90
19999;DHT22;10160;50.926;4.374;2023-05-21T15:25:05;26.70;99.90
19999;DHT22;10160;50.926;4.374;2023-05-21T15:27:32;26.80;99.90
19999;DHT22;10160;50.926;4.374;2023-05-21T15:29:57;26.10;99.90
19999;DHT22;10160;50.926;4.374;2023-05-21T15:32:23;26.20;99.90
19999;DHT22;10160;50.926;4.374;2023-05-21T15:34:50;26.30;99.90
19999;DHT22;10160;50.926;4.374;2023-05-21T15:37:16;25.60;99.90
19999;DHT22;10160;50.926;4.374;2023-05-21T15:39:42;25.80;99.90
19999;DHT22;10160;50.926;4.374;2023-05-21T15:42:08;25.80;99.90
19999;DHT22;10160;50.926;4.374;2023-05-21T15:44:36;25.90;99.90
19999;DHT22;10160;50.926;4.374;2023-05-21T15:47:01;25.90;99.90
19999;DHT22;10160;50.926;4.374;2023-05-21T15:49:27;25.90;99.90
19999;DHT22;10160;50.926;4.374;2023-05-21T15:51:53;26.10;99.90
19999;DHT22;10160;50.926;4.374;2023-05-21T15:54:19;26.20;99.90
19999;DHT22;10160;50.926;4.374;2023-05-21T15:56:45;26.20;99.90
19999;DHT22;10160;50.926;4.374;2023-05-21T15:59:12;25.70;99.90
19999;DHT22;10160;50.926;4.374;2023-05-21T16:01:38;25.50;99.90